Stuyvesant — WNFX — position and weather

sailwx.info

Track history (hours):
 
Tides and Currents Weather Stations Pressure Air Temp Water Temp Dewpoint Dewpoint Depression Visibility Wind Speed Wind Dir Waves Ship Positions

Stuyvesant

Owner: THE DUTRA GROUP, SAN RAFAEL, CA. More information available from US FCC via Universal Licensing System and Coast Guard Vessel Documentation Center.

Last reported at 2017-Feb-27 00:14 UTC. Time now 2017-Feb-27 04:45 UTC.
Position N 31°03' W 081°15'.

Length 122 m; draft 10 m.

Type: Dredging. MMSI: 368098000.

Date/timePositionNaut miles runAvg speedWind from/ knotsBaromVisibWave heightAir tempDewpointWater temp
2017-Feb-27 00:14N 31°03' W 081°15'  
2017-Feb-21 05:30N 31°05' W 081°19'2 1.6
2017-Feb-21 04:33N 31°06' W 081°20'3 2.9
2017-Feb-21 03:33N 31°08' W 081°23'4 3.8
2017-Feb-21 02:33N 31°06' W 081°19'5 4.7
2017-Feb-21 01:33N 31°02' W 081°16'5 3.4
2017-Feb-21 00:09N 31°06' W 081°19'2 2.5
2017-Feb-20 23:28N 31°07' W 081°21'  
2017-Feb-18 15:34N 31°05' W 081°18'4 4.0
2017-Feb-18 14:31N 31°01' W 081°17'3 3.3
2017-Feb-18 13:33N 31°04' W 081°17'4 3.9
2017-Feb-18 12:34N 31°06' W 081°21'1 0.5
2017-Feb-18 11:33N 31°06' W 081°20'5 3.7
2017-Feb-18 10:06N 31°03' W 081°15'3 5.2
2017-Feb-18 09:32N 31°01' W 081°17'5 2.4
2017-Feb-18 07:22N 31°06' W 081°19'2 0.7
2017-Feb-18 04:29N 31°05' W 081°17'0 0.2
2017-Feb-18 03:32N 31°05' W 081°18'0 0.0
2017-Feb-18 01:32N 31°05' W 081°18'  
Track history (hours):
 
Tides and Currents Weather Stations Pressure Air Temp Water Temp Dewpoint Dewpoint Depression Visibility Wind Speed Wind Dir Waves Ship Positions

Stuyvesant

Owner: THE DUTRA GROUP, SAN RAFAEL, CA. More information available from US FCC via Universal Licensing System and Coast Guard Vessel Documentation Center.

Last reported at 2017-Feb-27 00:14 UTC. Time now 2017-Feb-27 04:45 UTC.
Position N 31°03' W 081°15'.

Length 122 m; draft 10 m.

Type: Dredging. MMSI: 368098000.

Date/timePositionNaut miles runAvg speedWind from/ knotsBaromVisibWave heightAir tempDewpointWater temp
2017-Feb-27 00:14N 31°03' W 081°15'  
2017-Feb-21 05:30N 31°05' W 081°19'2 1.6
2017-Feb-21 04:33N 31°06' W 081°20'3 2.9
2017-Feb-21 03:33N 31°08' W 081°23'4 3.8
2017-Feb-21 02:33N 31°06' W 081°19'5 4.7
2017-Feb-21 01:33N 31°02' W 081°16'5 3.4
2017-Feb-21 00:09N 31°06' W 081°19'2 2.5
2017-Feb-20 23:28N 31°07' W 081°21'  
2017-Feb-18 15:34N 31°05' W 081°18'4 4.0
2017-Feb-18 14:31N 31°01' W 081°17'3 3.3
2017-Feb-18 13:33N 31°04' W 081°17'4 3.9
2017-Feb-18 12:34N 31°06' W 081°21'1 0.5
2017-Feb-18 11:33N 31°06' W 081°20'5 3.7
2017-Feb-18 10:06N 31°03' W 081°15'3 5.2
2017-Feb-18 09:32N 31°01' W 081°17'5 2.4
2017-Feb-18 07:22N 31°06' W 081°19'2 0.7
2017-Feb-18 04:29N 31°05' W 081°17'0 0.2
2017-Feb-18 03:32N 31°05' W 081°18'0 0.0
2017-Feb-18 01:32N 31°05' W 081°18'  

Dump ship's entire track history